Time;durP1;ratioP1;P1;durP2;ratioP2;P2;SDS_P1;SDS_P2;PMS_P1;PMS_P2;Temp;Humidity;BMP_temperature;BMP_pressure;BME280_temperature;BME280_humidity;BME280_pressure;Samples;Min_cycle;Max_cycle;Signal;HPM_P1;HPM_P2
2021/12/08 00:01:39;;;;;;;31.00;21.70;;;6.50;54.40;;;;;;5050371;28;20044;-62
2021/12/08 00:04:05;;;;;;;29.63;21.17;;;6.60;54.50;;;;;;5050441;28;20048;-62
2021/12/08 00:06:30;;;;;;;31.53;21.80;;;6.60;54.60;;;;;;5049461;28;20471;-61
2021/12/08 00:09:03;;;;;;;28.90;22.33;;;6.70;54.80;;;;;;5053385;28;20033;-62
2021/12/08 00:14:14;;;;;;;28.50;21.37;;;6.70;54.60;;;;;;5054959;28;20059;-61
2021/12/08 00:16:40;;;;;;;31.17;22.93;;;6.70;55.00;;;;;;5052008;28;20029;-62
2021/12/08 00:19:05;;;;;;;29.40;21.07;;;6.80;53.80;;;;;;5053939;28;20044;-62
2021/12/08 00:21:31;;;;;;;29.60;22.00;;;6.70;54.10;;;;;;5055592;28;20032;-62
2021/12/08 00:23:56;;;;;;;30.03;21.73;;;6.80;54.10;;;;;;5053002;28;20041;-62
2021/12/08 00:26:22;;;;;;;30.33;22.13;;;6.80;54.40;;;;;;5041526;28;20033;-61
2021/12/08 00:28:48;;;;;;;31.40;22.77;;;6.80;54.40;;;;;;5051413;28;20059;-61
2021/12/08 00:31:13;;;;;;;32.03;22.43;;;6.90;54.50;;;;;;5054697;28;20387;-61
2021/12/08 00:33:40;;;;;;;30.37;22.87;;;6.70;54.30;;;;;;5054698;28;20049;-62
2021/12/08 00:36:12;;;;;;;33.37;24.03;;;6.70;54.50;;;;;;5055638;28;20032;-62
2021/12/08 00:38:38;;;;;;;30.90;22.60;;;6.70;54.60;;;;;;5047903;28;20048;-62
2021/12/08 00:41:03;;;;;;;30.90;22.57;;;6.80;54.60;;;;;;5042339;28;20037;-62
2021/12/08 00:43:29;;;;;;;32.00;23.63;;;6.80;54.30;;;;;;5051652;28;20037;-62
2021/12/08 00:45:56;;;;;;;31.67;23.47;;;6.80;54.60;;;;;;5055323;28;20025;-62
2021/12/08 00:48:22;;;;;;;38.13;24.37;;;6.80;54.30;;;;;;5046781;28;20048;-62
2021/12/08 00:50:49;;;;;;;33.67;23.47;;;6.70;54.40;;;;;;5055251;28;20029;-62
2021/12/08 00:53:16;;;;;;;30.90;22.63;;;6.80;54.50;;;;;;5053920;28;20059;-62
2021/12/08 00:55:41;;;;;;;31.67;23.00;;;6.80;54.60;;;;;;5047875;28;20050;-62
2021/12/08 00:58:08;;;;;;;31.80;22.93;;;6.80;54.40;;;;;;5045244;28;20037;-62
2021/12/08 01:00:40;;;;;;;35.60;24.37;;;6.70;54.90;;;;;;5054107;28;20024;-62
2021/12/08 01:03:07;;;;;;;31.60;22.67;;;6.60;54.30;;;;;;5043356;28;20025;-62
2021/12/08 01:05:45;;;;;;;33.53;24.10;;;6.70;54.60;;;;;;5053974;28;20063;-62
2021/12/08 01:08:11;;;;;;;30.73;23.53;;;6.70;54.50;;;;;;5053854;28;20391;-62
2021/12/08 01:10:39;;;;;;;32.53;23.73;;;6.70;54.70;;;;;;5054711;28;20028;-63
2021/12/08 01:13:07;;;;;;;32.07;22.53;;;6.70;54.30;;;;;;5054105;28;20506;-62
2021/12/08 01:15:53;;;;;;;33.07;23.23;;;6.80;54.60;;;;;;5054841;28;20035;-62
2021/12/08 01:18:20;;;;;;;33.63;23.57;;;6.80;55.40;;;;;;5052431;28;20048;-62
2021/12/08 01:20:47;;;;;;;36.03;24.93;;;6.70;54.80;;;;;;5051194;28;20029;-62
2021/12/08 01:23:14;;;;;;;36.17;22.93;;;6.80;55.20;;;;;;5053852;28;20047;-62
2021/12/08 01:25:39;;;;;;;34.40;24.10;;;6.70;54.80;;;;;;5054698;28;20025;-62
2021/12/08 01:28:05;;;;;;;31.37;24.50;;;6.80;55.20;;;;;;5053567;28;20041;-61
2021/12/08 01:30:32;;;;;;;31.67;22.10;;;6.90;54.90;;;;;;5052910;28;20395;-62
2021/12/08 01:32:57;;;;;;;36.97;23.00;;;6.80;54.80;;;;;;5036153;28;20032;-62
2021/12/08 01:35:24;;;;;;;33.80;23.90;;;6.80;54.70;;;;;;5034510;28;20078;-62
2021/12/08 01:37:50;;;;;;;35.27;24.80;;;6.80;55.00;;;;;;5033901;28;20056;-62
2021/12/08 01:40:17;;;;;;;31.87;24.33;;;6.80;54.90;;;;;;5054216;28;20423;-62
2021/12/08 01:42:47;;;;;;;34.83;25.47;;;6.80;55.20;;;;;;5053888;28;20060;-62
2021/12/08 01:48:04;;;;;;;33.10;24.80;;;6.70;55.40;;;;;;5053579;28;20173;-62
2021/12/08 01:50:30;;;;;;;38.03;25.50;;;6.60;55.30;;;;;;5052660;28;20459;-62
2021/12/08 01:52:56;;;;;;;37.43;25.60;;;6.70;55.40;;;;;;5054144;28;20037;-62
2021/12/08 01:55:21;;;;;;;32.83;23.80;;;6.80;55.70;;;;;;5050463;28;20029;-62
2021/12/08 01:57:48;;;;;;;36.40;25.33;;;6.70;55.70;;;;;;5034444;28;20491;-62
2021/12/08 02:00:21;;;;;;;35.97;23.83;;;6.80;56.00;;;;;;5045745;28;20082;-62
2021/12/08 02:02:47;;;;;;;35.53;25.27;;;6.70;56.50;;;;;;5054199;28;20029;-62
2021/12/08 02:05:13;;;;;;;29.17;23.53;;;6.70;57.00;;;;;;5053182;28;20494;-62
2021/12/08 02:07:39;;;;;;;36.53;25.90;;;6.70;56.50;;;;;;5053705;28;20119;-62
2021/12/08 02:10:06;;;;;;;34.83;25.77;;;6.80;56.60;;;;;;5051240;28;20435;-62
2021/12/08 02:12:36;;;;;;;35.57;26.10;;;6.70;56.50;;;;;;5053873;28;20033;-62
2021/12/08 02:15:04;;;;;;;35.63;25.63;;;6.60;56.60;;;;;;5051650;28;20013;-62
2021/12/08 02:17:29;;;;;;;32.93;24.77;;;6.70;56.70;;;;;;5052061;28;20025;-62
2021/12/08 02:19:55;;;;;;;36.27;25.30;;;6.60;56.50;;;;;;5048479;28;20026;-62
2021/12/08 02:22:21;;;;;;;34.40;26.07;;;6.70;56.80;;;;;;5033795;28;20460;-62
2021/12/08 02:24:47;;;;;;;34.20;26.23;;;6.60;57.50;;;;;;5036965;28;20112;-62
2021/12/08 02:27:12;;;;;;;33.90;25.70;;;6.60;57.00;;;;;;5053296;28;20449;-62
2021/12/08 02:29:46;;;;;;;35.70;25.97;;;6.50;57.00;;;;;;5050177;28;20459;-62
2021/12/08 02:32:32;;;;;;;32.77;25.00;;;6.60;56.60;;;;;;5052177;28;20040;-62
2021/12/08 02:48:37;;;;;;;33.80;24.57;;;6.60;57.80;;;;;;5053363;28;20060;-62
2021/12/08 02:51:03;;;;;;;38.17;26.67;;;6.70;57.30;;;;;;5046088;28;20029;-62
2021/12/08 02:53:31;;;;;;;33.27;25.20;;;6.70;57.40;;;;;;5053040;28;20040;-62
2021/12/08 02:55:57;;;;;;;37.73;25.03;;;6.80;56.30;;;;;;5042829;28;20139;-62
2021/12/08 02:58:25;;;;;;;34.27;24.53;;;6.70;57.50;;;;;;5033155;28;20117;-63
2021/12/08 03:01:01;;;;;;;38.53;25.97;;;6.70;57.40;;;;;;5042159;28;20106;-62
2021/12/08 03:03:27;;;;;;;33.13;25.67;;;6.70;56.90;;;;;;5049277;28;20033;-62
2021/12/08 03:05:53;;;;;;;34.10;25.53;;;6.70;56.60;;;;;;5052069;28;20025;-63
2021/12/08 03:08:19;;;;;;;37.07;25.07;;;6.70;56.70;;;;;;5052724;28;20067;-62
2021/12/08 03:10:50;;;;;;;35.60;25.83;;;6.70;57.10;;;;;;5049351;28;20032;-62
2021/12/08 03:13:15;;;;;;;35.50;24.80;;;6.70;56.40;;;;;;5052952;28;20021;-62
2021/12/08 03:15:41;;;;;;;32.00;24.53;;;6.60;56.50;;;;;;5050940;28;20094;-62
2021/12/08 03:18:08;;;;;;;33.33;24.77;;;6.60;56.40;;;;;;5052998;28;20032;-62
2021/12/08 03:20:39;;;;;;;31.43;24.13;;;6.60;56.50;;;;;;5051578;28;20025;-62
2021/12/08 03:23:09;;;;;;;31.17;23.23;;;6.60;56.80;;;;;;5052891;28;20475;-63
2021/12/08 03:25:39;;;;;;;29.80;24.20;;;6.60;56.50;;;;;;5050395;28;20025;-62
2021/12/08 03:28:15;;;;;;;35.10;24.90;;;6.40;56.20;;;;;;5052971;28;20064;-62
2021/12/08 03:30:53;;;;;;;36.63;25.33;;;6.50;56.20;;;;;;5052024;28;20025;-62
2021/12/08 03:33:19;;;;;;;33.97;24.53;;;6.50;56.60;;;;;;5039826;28;20071;-62
2021/12/08 03:35:45;;;;;;;33.37;24.90;;;6.40;56.00;;;;;;5050755;28;20068;-62
2021/12/08 03:38:11;;;;;;;30.47;21.87;;;6.50;56.90;;;;;;5052565;28;20049;-63
2021/12/08 03:40:37;;;;;;;29.67;23.30;;;6.60;56.50;;;;;;5037244;28;20025;-62
2021/12/08 03:43:02;;;;;;;32.93;24.33;;;6.70;56.60;;;;;;5055334;28;20124;-62
2021/12/08 03:45:43;;;;;;;33.23;23.80;;;6.60;55.70;;;;;;5051003;28;20025;-62
2021/12/08 03:48:14;;;;;;;33.20;23.47;;;6.50;56.00;;;;;;5036553;28;20475;-62
2021/12/08 03:50:42;;;;;;;32.17;22.73;;;6.40;56.40;;;;;;5043494;28;20115;-62
2021/12/08 03:53:12;;;;;;;32.90;23.30;;;6.40;56.40;;;;;;5056762;28;20052;-62
2021/12/08 03:55:39;;;;;;;30.57;23.53;;;6.40;56.40;;;;;;5054134;28;20025;-62
2021/12/08 03:58:04;;;;;;;32.63;23.10;;;6.40;56.60;;;;;;5056392;28;20532;-62
2021/12/08 04:00:30;;;;;;;31.50;24.00;;;6.40;56.50;;;;;;5055444;28;20069;-62
2021/12/08 04:02:59;;;;;;;33.53;21.83;;;6.60;57.10;;;;;;5055669;28;20025;-62
2021/12/08 04:05:39;;;;;;;32.23;22.07;;;6.50;57.00;;;;;;5054257;28;20032;-62
2021/12/08 04:08:15;;;;;;;27.47;22.47;;;6.60;56.90;;;;;;5055102;28;20033;-62
2021/12/08 04:10:41;;;;;;;32.47;22.47;;;6.40;56.40;;;;;;5055308;28;20028;-62
2021/12/08 04:13:54;;;;;;;29.00;21.77;;;6.40;56.60;;;;;;5039953;28;20083;-62
2021/12/08 04:16:29;;;;;;;30.33;22.60;;;6.50;56.80;;;;;;5052833;28;20040;-62
2021/12/08 04:18:57;;;;;;;33.23;22.77;;;6.50;56.70;;;;;;5055903;28;20025;-62
2021/12/08 04:21:25;;;;;;;31.97;23.23;;;6.40;56.70;;;;;;5054688;28;20036;-62
2021/12/08 04:23:52;;;;;;;30.37;22.37;;;6.30;56.80;;;;;;5053323;28;20036;-62
2021/12/08 04:26:30;;;;;;;30.70;21.87;;;6.40;56.50;;;;;;5054117;28;20029;-62
2021/12/08 04:28:56;;;;;;;28.83;22.93;;;6.60;56.50;;;;;;5035801;28;20478;-62
2021/12/08 04:31:25;;;;;;;27.53;21.20;;;6.60;56.70;;;;;;5047057;28;20036;-63
2021/12/08 04:33:57;;;;;;;31.80;21.40;;;6.60;56.60;;;;;;5044253;28;20032;-62
2021/12/08 04:36:25;;;;;;;30.93;21.97;;;6.40;56.40;;;;;;5061580;28;20029;-63
2021/12/08 04:38:56;;;;;;;28.63;21.77;;;6.50;56.60;;;;;;5055308;28;20072;-62
2021/12/08 04:41:31;;;;;;;28.97;21.63;;;6.40;56.80;;;;;;5054309;28;20414;-63
2021/12/08 04:44:21;;;;;;;28.87;21.97;;;6.50;57.10;;;;;;5054520;28;20048;-63
2021/12/08 05:08:41;;;;;;;32.20;24.03;;;5.60;78.60;;;;;;5054164;28;20049;-61
2021/12/08 05:11:23;;;;;;;34.57;24.10;;;5.70;74.60;;;;;;5046531;28;20387;-62
2021/12/08 05:13:55;;;;;;;31.07;22.70;;;5.60;72.30;;;;;;5050250;28;20104;-61
2021/12/08 05:16:22;;;;;;;37.07;24.57;;;5.60;78.50;;;;;;5042809;28;20533;-62
2021/12/08 05:18:51;;;;;;;33.37;23.90;;;5.60;70.00;;;;;;5053754;28;20090;-62
2021/12/08 05:21:30;;;;;;;32.23;23.83;;;5.50;70.20;;;;;;5052826;28;20108;-62
2021/12/08 05:24:04;;;;;;;38.93;26.20;;;5.60;71.10;;;;;;5051760;28;20025;-62
2021/12/08 05:26:53;;;;;;;34.03;24.17;;;5.60;71.10;;;;;;5049079;28;20036;-62
2021/12/08 05:29:49;;;;;;;36.73;24.13;;;5.50;71.20;;;;;;5053091;28;20394;-62
2021/12/08 05:32:16;;;;;;;34.73;24.60;;;5.40;71.20;;;;;;5053907;28;20036;-62
2021/12/08 05:34:43;;;;;;;35.13;24.43;;;5.50;72.10;;;;;;5045956;28;20052;-61
2021/12/08 05:37:11;;;;;;;33.57;23.57;;;5.50;72.70;;;;;;5034419;28;20022;-62
2021/12/08 05:39:37;;;;;;;37.27;25.07;;;5.50;72.00;;;;;;5041970;28;20124;-62
2021/12/08 05:42:07;;;;;;;36.27;24.20;;;5.30;72.10;;;;;;5054120;28;20024;-62
2021/12/08 05:44:34;;;;;;;33.30;23.53;;;5.30;74.10;;;;;;5053057;28;20040;-62
2021/12/08 05:47:04;;;;;;;34.10;24.67;;;5.30;77.50;;;;;;5053827;28;20086;-62
2021/12/08 05:49:30;;;;;;;32.40;24.67;;;5.40;79.70;;;;;;5052453;28;20032;-62
2021/12/08 05:51:57;;;;;;;33.97;24.70;;;5.50;80.50;;;;;;5052846;28;20040;-62
2021/12/08 05:54:32;;;;;;;34.67;24.37;;;5.50;79.40;;;;;;5049271;28;20045;-62
2021/12/08 05:57:26;;;;;;;31.15;22.25;;;5.50;80.80;;;;;;5032957;28;20032;-62
2021/12/08 05:59:53;;;;;;;33.43;25.10;;;5.50;81.20;;;;;;5044370;28;20048;-62
2021/12/08 06:02:23;;;;;;;34.90;25.33;;;5.50;81.70;;;;;;5052057;28;20037;-62
2021/12/08 06:04:50;;;;;;;34.67;24.93;;;5.40;81.70;;;;;;5052313;28;20387;-62
2021/12/08 06:07:21;;;;;;;34.50;25.10;;;5.40;81.00;;;;;;5053578;28;20033;-62
2021/12/08 06:09:52;;;;;;;32.43;25.00;;;5.30;81.10;;;;;;5046583;28;20396;-62
2021/12/08 06:12:17;;;;;;;37.23;25.90;;;5.20;81.60;;;;;;5053779;28;20029;-62
2021/12/08 06:14:44;;;;;;;30.97;24.60;;;5.30;84.80;;;;;;5047943;28;20025;-62
2021/12/08 06:17:13;;;;;;;34.63;23.97;;;5.30;83.90;;;;;;5033830;28;20108;-62
2021/12/08 06:19:40;;;;;;;37.83;25.53;;;5.30;84.40;;;;;;5038823;28;20374;-62
2021/12/08 06:22:09;;;;;;;38.93;26.30;;;5.40;86.10;;;;;;5053400;28;20031;-62
2021/12/08 06:24:35;;;;;;;36.07;25.23;;;5.40;85.60;;;;;;5050947;28;20438;-62
2021/12/08 06:27:05;;;;;;;36.90;25.43;;;5.40;87.20;;;;;;5052526;28;20041;-62
2021/12/08 06:29:31;;;;;;;37.50;25.13;;;5.30;83.70;;;;;;5052200;28;20026;-62
2021/12/08 06:31:59;;;;;;;36.93;24.70;;;;;;;;;;5053301;28;20036;-62
2021/12/08 06:34:26;;;;;;;32.97;24.87;;;5.10;86.40;;;;;;5051513;28;20063;-61
2021/12/08 06:37:05;;;;;;;35.70;25.70;;;5.20;87.90;;;;;;5041130;28;20025;-62
2021/12/08 06:39:55;;;;;;;35.00;24.40;;;5.20;87.90;;;;;;5046145;28;20055;-62
2021/12/08 06:42:23;;;;;;;36.43;25.80;;;5.10;87.90;;;;;;5051683;28;20550;-62
2021/12/08 06:44:53;;;;;;;34.00;24.57;;;5.20;90.00;;;;;;5052614;28;20067;-62
2021/12/08 06:47:22;;;;;;;34.67;24.43;;;5.10;89.10;;;;;;5051800;28;20037;-62
2021/12/08 06:49:50;;;;;;;36.47;24.93;;;5.00;87.50;;;;;;5051704;28;20032;-62
2021/12/08 06:52:20;;;;;;;33.00;23.67;;;5.10;88.30;;;;;;5053067;28;20475;-62
2021/12/08 06:54:55;;;;;;;33.27;22.43;;;5.10;87.90;;;;;;5050274;28;20025;-62
2021/12/08 06:57:33;;;;;;;32.00;23.05;;;5.20;88.00;;;;;;5053031;28;20020;-62
2021/12/08 07:00:16;;;;;;;34.60;23.70;;;5.20;88.50;;;;;;5051562;28;20052;-62
2021/12/08 07:05:31;;;;;;;30.40;21.17;;;5.20;88.30;;;;;;5051789;28;20036;-62
2021/12/08 07:08:09;;;;;;;29.83;21.93;;;4.90;89.10;;;;;;5051463;28;20037;-62
2021/12/08 07:10:44;;;;;;;31.97;21.33;;;4.90;90.30;;;;;;5050028;28;20088;-62
2021/12/08 07:13:17;;;;;;;33.50;22.53;;;5.00;89.30;;;;;;5052717;28;20025;-62
2021/12/08 07:15:53;;;;;;;32.73;21.00;;;5.10;89.10;;;;;;5051809;28;20037;-62
2021/12/08 07:18:36;;;;;;;32.37;21.33;;;5.10;88.70;;;;;;5051780;28;20391;-62
2021/12/08 07:21:03;;;;;;;30.67;22.67;;;5.20;89.10;;;;;;5047527;28;20025;-62
2021/12/08 07:23:38;;;;;;;32.50;21.73;;;5.10;89.10;;;;;;5052875;28;20044;-62
2021/12/08 07:26:13;;;;;;;;;;;5.20;89.30;;;;;;5050893;28;20471;-62
2021/12/08 07:28:40;;;;;;;29.10;20.23;;;5.20;89.80;;;;;;5052429;28;19963;-62
2021/12/08 07:31:26;;;;;;;30.73;22.20;;;5.20;89.30;;;;;;5051947;28;20033;-62
2021/12/08 07:34:31;;;;;;;26.57;19.03;;;5.20;89.00;;;;;;5052605;28;20041;-62
2021/12/08 07:37:14;;;;;;;28.40;19.33;;;5.30;89.20;;;;;;5051037;28;20025;-62
2021/12/08 07:39:44;;;;;;;27.23;19.93;;;5.00;88.20;;;;;;5050708;28;20279;-62
2021/12/08 07:42:19;;;;;;;26.67;18.80;;;5.00;89.20;;;;;;5051224;28;20060;-62
2021/12/08 07:44:49;;;;;;;25.58;18.92;;;5.10;90.10;;;;;;5049811;28;20390;-62
2021/12/08 07:47:17;;;;;;;28.17;17.83;;;5.00;90.00;;;;;;5046276;28;20041;-62
2021/12/08 07:49:50;;;;;;;26.60;18.23;;;5.30;90.30;;;;;;5052109;28;20049;-62
2021/12/08 07:52:29;;;;;;;24.37;17.43;;;5.40;89.70;;;;;;5032556;28;20026;-62
2021/12/08 07:54:57;;;;;;;25.27;17.17;;;5.40;89.50;;;;;;5048345;28;20075;-62
2021/12/08 07:57:28;;;;;;;24.87;17.13;;;5.50;89.30;;;;;;5052550;28;20033;-62
2021/12/08 07:59:59;;;;;;;26.93;17.83;;;5.50;90.40;;;;;;5051701;28;20021;-62
2021/12/08 08:02:26;;;;;;;23.20;16.00;;;5.50;90.00;;;;;;5052598;28;20061;-62
2021/12/08 08:04:53;;;;;;;23.27;16.43;;;5.50;88.30;;;;;;5049687;28;20045;-62
2021/12/08 08:07:19;;;;;;;25.27;15.90;;;5.40;89.80;;;;;;5032136;28;20375;-62
2021/12/08 08:09:48;;;;;;;23.47;15.30;;;5.50;90.50;;;;;;5032432;28;20029;-62
2021/12/08 08:12:21;;;;;;;23.17;17.10;;;5.50;90.00;;;;;;5051601;28;20051;-62
2021/12/08 08:14:53;;;;;;;21.13;15.27;;;5.50;90.10;;;;;;5066782;28;20025;-62
2021/12/08 08:17:30;;;;;;;23.60;16.53;;;5.60;90.20;;;;;;5051738;28;20111;-62
2021/12/08 08:19:56;;;;;;;24.33;15.53;;;5.30;91.00;;;;;;5050161;28;20494;-62
2021/12/08 08:22:25;;;;;;;21.67;16.17;;;5.30;91.50;;;;;;5052088;28;20525;-62
2021/12/08 08:24:53;;;;;;;23.37;16.27;;;5.30;91.00;;;;;;5051413;28;20028;-62
2021/12/08 08:27:20;;;;;;;23.87;17.47;;;5.30;91.40;;;;;;5051664;28;20394;-62
2021/12/08 08:29:46;;;;;;;27.13;17.77;;;5.20;92.60;;;;;;5052642;28;20458;-62
2021/12/08 08:32:21;;;;;;;21.30;15.27;;;5.30;92.60;;;;;;5054936;28;20033;-62
2021/12/08 08:34:50;;;;;;;24.10;15.40;;;5.00;92.40;;;;;;5055495;28;20021;-62
2021/12/08 08:37:16;;;;;;;24.80;16.13;;;5.00;93.70;;;;;;5054380;28;20061;-62
2021/12/08 08:39:59;;;;;;;22.87;15.37;;;5.10;94.30;;;;;;5055268;28;20053;-62
2021/12/08 08:42:36;;;;;;;21.70;14.90;;;5.00;92.70;;;;;;5055430;28;20064;-62
2021/12/08 08:45:20;;;;;;;25.13;16.23;;;5.10;94.40;;;;;;5054510;28;20025;-62
2021/12/08 08:47:57;;;;;;;22.10;16.13;;;4.90;92.80;;;;;;5055381;28;20112;-62
2021/12/08 08:50:29;;;;;;;27.57;17.80;;;4.90;94.00;;;;;;5053543;28;20037;-62
2021/12/08 08:52:59;;;;;;;25.17;17.93;;;4.70;94.00;;;;;;5053507;28;20029;-62
2021/12/08 08:55:32;;;;;;;29.93;19.87;;;4.80;96.60;;;;;;5052410;28;20029;-62
2021/12/08 08:58:00;;;;;;;29.23;19.27;;;4.80;93.20;;;;;;5062246;28;20610;-62
2021/12/08 09:00:34;;;;;;;28.13;19.27;;;4.80;92.80;;;;;;5051747;28;20033;-62
2021/12/08 09:03:00;;;;;;;;;;;;;;;;;;5054856;28;20021;-62
2021/12/08 09:05:29;;;;;;;28.80;17.70;;;;;;;;;;5040351;28;19920;-62
2021/12/08 09:07:56;;;;;;;26.90;18.37;;;4.10;99.60;;;;;;5054605;28;20045;-62
2021/12/08 09:10:46;;;;;;;27.00;18.13;;;4.40;97.80;;;;;;5050488;28;20033;-62
2021/12/08 09:13:16;;;;;;;27.67;18.47;;;4.30;98.10;;;;;;5053572;28;20115;-62
2021/12/08 09:15:50;;;;;;;27.43;17.33;;;4.30;99.90;;;;;;5053525;28;20184;-62
2021/12/08 09:18:39;;;;;;;24.23;16.20;;;4.40;99.90;;;;;;5042304;28;20103;-62
2021/12/08 09:21:18;;;;;;;26.23;16.43;;;;;;;;;;5042379;28;20029;-62
2021/12/08 09:23:50;;;;;;;27.13;17.60;;;;;;;;;;5054353;28;20482;-62
2021/12/08 09:26:18;;;;;;;31.23;19.53;;;;;;;;;;5053379;28;20044;-62
2021/12/08 09:28:54;;;;;;;26.30;18.17;;;4.80;99.90;;;;;;5054217;28;20554;-62
2021/12/08 09:31:26;;;;;;;28.33;17.77;;;;;;;;;;5051923;28;20425;-62
2021/12/08 09:34:00;;;;;;;29.20;18.80;;;;;;;;;;5053103;28;20040;-62
2021/12/08 09:36:32;;;;;;;31.13;19.97;;;;;;;;;;5052724;28;20025;-62
2021/12/08 09:39:04;;;;;;;32.07;19.47;;;4.00;89.00;;;;;;5051962;28;20540;-62
2021/12/08 09:41:40;;;;;;;30.27;20.40;;;4.00;91.50;;;;;;5052605;28;20501;-62
2021/12/08 09:44:14;;;;;;;33.13;22.00;;;4.10;92.00;;;;;;5053567;28;20033;-62
2021/12/08 09:46:43;;;;;;;33.28;21.30;;;4.00;94.90;;;;;;5053048;28;20037;-62
2021/12/08 09:49:12;;;;;;;32.83;23.00;;;3.90;95.40;;;;;;5053369;28;20028;-61
2021/12/08 09:51:38;;;;;;;31.70;22.33;;;3.80;90.50;;;;;;5053236;28;20033;-62
2021/12/08 09:54:04;;;;;;;35.03;23.27;;;3.60;90.50;;;;;;5044343;28;20029;-62
2021/12/08 09:56:30;;;;;;;36.17;25.30;;;3.70;91.80;;;;;;5032755;28;20079;-62
2021/12/08 09:58:57;;;;;;;37.50;25.30;;;3.50;90.50;;;;;;5034153;28;20021;-63
2021/12/08 10:01:24;;;;;;;32.93;23.77;;;3.70;97.40;;;;;;5041067;28;20041;-63
2021/12/08 10:07:12;;;;;;;35.20;25.27;;;3.70;98.50;;;;;;5052121;28;20505;-64
2021/12/08 10:09:39;;;;;;;38.23;26.33;;;3.70;98.80;;;;;;5054104;28;20049;-64
2021/12/08 10:12:05;;;;;;;38.03;25.27;;;3.60;98.70;;;;;;5052708;28;20037;-64
2021/12/08 10:14:31;;;;;;;38.00;27.07;;;3.30;99.70;;;;;;5052427;28;20187;-63
2021/12/08 10:16:57;;;;;;;34.70;25.00;;;3.50;99.90;;;;;;5045898;28;20115;-64
2021/12/08 10:19:23;;;;;;;34.00;23.47;;;3.70;99.90;;;;;;5044312;28;20463;-64
2021/12/08 10:21:49;;;;;;;39.30;25.27;;;3.70;99.90;;;;;;5042542;28;20120;-64
2021/12/08 10:24:21;;;;;;;36.07;25.77;;;3.70;99.90;;;;;;5038218;28;20029;-64
2021/12/08 10:26:49;;;;;;;34.37;23.67;;;3.50;99.90;;;;;;5042549;28;20485;-64
2021/12/08 10:29:14;;;;;;;35.73;24.83;;;3.50;99.90;;;;;;5053365;28;20033;-63
2021/12/08 10:31:45;;;;;;;35.20;25.50;;;3.50;99.90;;;;;;5048742;28;20376;-63
2021/12/08 10:36:45;;;;;;;37.30;26.10;;;3.30;99.90;;;;;;5052046;28;20061;-63
2021/12/08 10:39:19;;;;;;;41.53;26.87;;;3.50;99.90;;;;;;5050952;28;20057;-62
2021/12/08 10:42:02;;;;;;;41.53;27.92;;;3.60;99.90;;;;;;5051486;28;20025;-62
2021/12/08 10:44:36;;;;;;;33.97;25.03;;;3.70;99.90;;;;;;5053159;28;20021;-62
2021/12/08 10:47:03;;;;;;;33.88;23.77;;;3.70;99.90;;;;;;5052110;28;20111;-62
2021/12/08 10:55:06;;;;;;;33.40;23.83;;;3.70;99.90;;;;;;5033771;28;20407;-61
2021/12/08 10:57:36;;;;;;;31.33;22.80;;;3.60;99.90;;;;;;5045618;28;20045;-61
2021/12/08 11:00:18;;;;;;;31.33;22.80;;;3.60;99.90;;;;;;5052675;28;20108;-61
2021/12/08 11:02:49;;;;;;;33.80;24.50;;;3.80;99.90;;;;;;5051986;28;20108;-62
2021/12/08 11:05:24;;;;;;;38.93;26.07;;;3.90;99.90;;;;;;5053199;28;20028;-62
2021/12/08 11:08:02;;;;;;;37.55;26.42;;;3.80;99.90;;;;;;5036186;28;20044;-62
2021/12/08 11:10:32;;;;;;;35.10;24.80;;;3.50;99.90;;;;;;5057278;28;20124;-63
2021/12/08 11:12:59;;;;;;;33.70;23.80;;;3.30;99.90;;;;;;5048392;28;20029;-64
2021/12/08 11:15:27;;;;;;;38.93;27.50;;;3.80;99.90;;;;;;5052936;28;20087;-64
2021/12/08 11:18:13;;;;;;;34.77;25.67;;;3.50;99.90;;;;;;5051674;28;20340;-64
2021/12/08 11:21:14;;;;;;;38.37;26.97;;;3.60;99.90;;;;;;5052431;28;20070;-65
2021/12/08 11:23:41;;;;;;;38.03;26.63;;;3.60;99.90;;;;;;5050283;28;20037;-64
2021/12/08 11:26:35;;;;;;;42.27;27.83;;;3.80;99.90;;;;;;5051767;28;20051;-64
2021/12/08 11:29:03;;;;;;;42.53;26.93;;;3.70;99.90;;;;;;5028573;28;20577;-64
2021/12/08 11:31:51;;;;;;;42.23;28.23;;;3.50;99.90;;;;;;5035674;28;20485;-64
2021/12/08 11:34:25;;;;;;;36.60;26.60;;;3.50;99.90;;;;;;5043309;28;20033;-65
2021/12/08 11:37:15;;;;;;;39.10;26.10;;;3.50;99.90;;;;;;5047865;28;20025;-65
2021/12/08 11:39:48;;;;;;;36.97;26.23;;;3.70;99.90;;;;;;5051143;28;20049;-65
2021/12/08 11:42:20;;;;;;;38.17;26.37;;;3.90;99.90;;;;;;5050493;28;20021;-66
2021/12/08 11:44:49;;;;;;;35.97;25.40;;;3.80;99.90;;;;;;5052099;28;20021;-65
2021/12/08 11:47:32;;;;;;;39.47;27.07;;;3.80;99.90;;;;;;5051432;28;20099;-65
2021/12/08 11:50:06;;;;;;;38.50;27.23;;;3.50;99.90;;;;;;5052644;28;20095;-65
2021/12/08 11:52:32;;;;;;;40.22;26.48;;;3.50;99.90;;;;;;5049982;28;20033;-65
2021/12/08 11:55:00;;;;;;;35.53;26.00;;;3.70;99.90;;;;;;5052875;28;20027;-64
2021/12/08 11:57:40;;;;;;;34.87;24.97;;;3.70;99.90;;;;;;5050775;28;20029;-64
2021/12/08 12:00:26;;;;;;;37.47;26.40;;;3.60;99.90;;;;;;5037382;28;20032;-63
2021/12/08 12:02:57;;;;;;;37.13;25.23;;;3.70;99.90;;;;;;5052757;28;20040;-63
2021/12/08 12:05:28;;;;;;;36.83;24.70;;;3.50;99.90;;;;;;5054256;28;20033;-63
2021/12/08 12:07:54;;;;;;;36.73;25.77;;;3.90;99.90;;;;;;5053769;28;20544;-63
2021/12/08 12:10:25;;;;;;;37.27;26.30;;;3.90;99.90;;;;;;5054583;28;20021;-63
2021/12/08 12:12:50;;;;;;;35.00;25.17;;;4.00;99.90;;;;;;5055094;28;20021;-62
2021/12/08 12:15:19;;;;;;;34.20;24.33;;;3.70;99.90;;;;;;5055680;28;20433;-62
2021/12/08 12:17:49;;;;;;;38.20;26.93;;;3.70;99.90;;;;;;5053748;28;20112;-62
2021/12/08 12:20:23;;;;;;;35.80;26.17;;;3.90;99.90;;;;;;5055142;28;20109;-62
2021/12/08 12:23:03;;;;;;;37.87;27.87;;;4.00;99.90;;;;;;5053962;28;20021;-61
2021/12/08 12:25:43;;;;;;;36.77;25.33;;;3.80;99.90;;;;;;5047189;28;20033;-61
2021/12/08 12:28:26;;;;;;;35.87;25.20;;;3.70;99.90;;;;;;5054706;28;20491;-61
2021/12/08 12:31:21;;;;;;;37.67;26.97;;;3.80;99.90;;;;;;5055990;28;20037;-61
2021/12/08 12:33:49;;;;;;;36.20;26.35;;;3.20;99.90;;;;;;5035817;28;20506;-61
2021/12/08 12:36:27;;;;;;;36.50;27.10;;;3.80;99.90;;;;;;5044516;28;20556;-61
2021/12/08 12:39:09;;;;;;;40.57;29.17;;;3.50;99.90;;;;;;5035418;28;20045;-61
2021/12/08 12:41:34;;;;;;;42.20;28.67;;;4.00;99.90;;;;;;5052318;28;20037;-61
2021/12/08 12:44:14;;;;;;;41.40;28.87;;;3.70;99.90;;;;;;5055519;28;20036;-61
2021/12/08 12:49:35;;;;;;;41.07;29.23;;;3.40;99.90;;;;;;5055743;28;20112;-61
2021/12/08 12:52:04;;;;;;;39.27;28.13;;;3.80;99.90;;;;;;5053278;28;20021;-61
2021/12/08 12:58:01;;;;;;;38.80;27.77;;;3.90;99.90;;;;;;5053815;28;20426;-61
2021/12/08 13:00:30;;;;;;;39.97;29.63;;;3.70;99.90;;;;;;5055205;28;20048;-61
2021/12/08 13:02:56;;;;;;;39.50;27.00;;;3.90;99.90;;;;;;5054110;28;20025;-62
2021/12/08 13:05:21;;;;;;;39.73;27.73;;;3.70;99.90;;;;;;5054936;28;20036;-61
2021/12/08 13:07:58;;;;;;;38.33;27.30;;;3.60;99.90;;;;;;5042767;28;20064;-61
2021/12/08 13:10:34;;;;;;;36.77;26.20;;;3.60;99.90;;;;;;5035464;28;20033;-61
2021/12/08 13:13:13;;;;;;;35.17;25.23;;;4.20;99.90;;;;;;5046899;28;20028;-61
2021/12/08 13:15:41;;;;;;;35.67;25.23;;;3.60;99.90;;;;;;5034927;28;20025;-61
2021/12/08 13:18:14;;;;;;;31.03;23.33;;;3.70;99.90;;;;;;5051867;28;20024;-61
2021/12/08 13:20:55;;;;;;;33.50;24.73;;;3.80;99.90;;;;;;5043322;28;20083;-61
2021/12/08 13:23:25;;;;;;;34.10;25.30;;;3.80;99.90;;;;;;5049512;28;20051;-61
2021/12/08 13:26:07;;;;;;;32.23;24.77;;;3.80;99.90;;;;;;5053414;28;20025;-61
2021/12/08 13:32:10;;;;;;;35.40;25.87;;;3.50;99.90;;;;;;5054379;28;20037;-61
2021/12/08 13:34:06;;;;;;;34.17;26.10;;;3.60;99.90;;;;;;5042859;28;20064;-61
2021/12/08 13:36:34;;;;;;;36.70;26.23;;;3.40;99.90;;;;;;5054711;28;20029;-61
2021/12/08 13:39:28;;;;;;;35.67;26.43;;;3.60;99.90;;;;;;5053549;28;20041;-61
2021/12/08 13:42:01;;;;;;;38.23;27.70;;;3.50;99.90;;;;;;5049769;28;20116;-61
2021/12/08 13:44:36;;;;;;;33.13;24.47;;;3.40;99.90;;;;;;5049211;28;20033;-61
2021/12/08 13:47:21;;;;;;;31.33;24.60;;;3.50;99.90;;;;;;5051962;28;20072;-61
2021/12/08 13:49:47;;;;;;;;;;;3.60;99.90;;;;;;5054613;28;20029;-61
2021/12/08 13:52:12;;;;;;;33.07;24.03;;;3.70;99.90;;;;;;5053230;28;19995;-61
2021/12/08 13:54:41;;;;;;;34.93;25.27;;;3.40;99.90;;;;;;5054132;28;20037;-61
2021/12/08 13:57:34;;;;;;;34.30;25.77;;;3.50;99.90;;;;;;5050588;28;20061;-61
2021/12/08 14:00:14;;;;;;;36.70;26.63;;;3.60;99.90;;;;;;5053383;28;20025;-61
2021/12/08 14:02:39;;;;;;;40.67;28.63;;;3.40;99.90;;;;;;5046261;28;20076;-61
2021/12/08 14:05:19;;;;;;;41.87;27.17;;;3.60;99.90;;;;;;5034091;28;20029;-61
2021/12/08 14:07:55;;;;;;;38.80;27.33;;;3.50;99.90;;;;;;5036726;28;20045;-61